createdAt,value
2018-02-14T09:04:49.532Z,85
2018-02-14T09:05:21.553Z,85
2018-02-14T09:05:53.627Z,85
2018-02-14T09:06:25.683Z,85
2018-02-14T09:06:58.113Z,85
2018-02-14T09:07:30.166Z,85
2018-02-14T09:08:02.192Z,85
2018-02-14T09:08:34.184Z,85
2018-02-14T09:09:06.208Z,85
2018-02-14T09:09:38.209Z,85
2018-02-14T09:10:10.226Z,85
2018-02-14T09:10:42.252Z,85
2018-02-14T09:11:14.240Z,85
2018-02-14T09:11:46.260Z,90
2018-02-14T09:12:18.323Z,90
2018-02-14T09:12:50.506Z,90
2018-02-14T09:13:23.316Z,90
2018-02-14T09:13:55.338Z,90
2018-02-14T09:14:27.382Z,90
2018-02-14T09:14:59.356Z,90
2018-02-14T09:15:32.256Z,90
2018-02-14T09:16:04.278Z,90
2018-02-14T09:16:36.426Z,90
2018-02-14T09:17:08.488Z,90
2018-02-14T09:17:40.524Z,90
2018-02-14T09:18:12.589Z,90
2018-02-14T09:18:44.657Z,90
2018-02-14T09:19:16.739Z,90
2018-02-14T09:19:48.799Z,90
2018-02-14T09:20:20.831Z,90
2018-02-14T09:20:52.851Z,90
2018-02-14T09:21:24.948Z,90
2018-02-14T09:21:57.055Z,90
2018-02-14T09:22:29.052Z,90
2018-02-14T09:23:01.050Z,90
2018-02-14T09:23:33.040Z,90
2018-02-14T09:24:05.047Z,90
2018-02-14T09:24:37.080Z,90
2018-02-14T09:25:09.203Z,90
2018-02-14T09:25:41.131Z,90
2018-02-14T09:26:13.150Z,90
2018-02-14T09:26:45.211Z,90
2018-02-14T09:27:17.235Z,95
2018-02-14T09:27:49.205Z,95
2018-02-14T09:28:21.824Z,95
2018-02-14T09:28:53.811Z,95
2018-02-14T09:29:25.843Z,95
2018-02-14T09:29:57.839Z,95
2018-02-14T09:30:30.741Z,95
2018-02-14T09:31:02.715Z,95
2018-02-14T09:31:34.716Z,95
2018-02-14T09:32:06.686Z,95
2018-02-14T09:32:38.664Z,95
2018-02-14T09:33:10.762Z,95
2018-02-14T09:33:42.835Z,95
2018-02-14T09:34:14.858Z,95
2018-02-14T09:34:47.639Z,95
2018-02-14T09:35:19.609Z,95
2018-02-14T09:35:51.616Z,95
2018-02-14T09:36:23.631Z,95
2018-02-14T09:36:55.717Z,95
2018-02-14T09:37:27.710Z,95
2018-02-14T09:37:59.710Z,95
2018-02-14T09:38:31.733Z,95
2018-02-14T09:39:03.721Z,95
2018-02-14T09:39:35.718Z,95
2018-02-14T09:40:07.718Z,95
2018-02-14T09:40:39.720Z,95
2018-02-14T09:41:11.740Z,95
2018-02-14T09:41:43.756Z,95
2018-02-14T09:42:15.782Z,95
2018-02-14T09:42:47.825Z,100
2018-02-14T09:43:19.821Z,100
2018-02-14T09:43:51.802Z,100
2018-02-14T09:44:23.846Z,100
2018-02-14T09:44:55.872Z,100
2018-02-14T09:45:27.881Z,100
2018-02-14T09:45:59.930Z,100
2018-02-14T09:46:31.957Z,100
2018-02-14T09:47:03.925Z,100
2018-02-14T09:47:35.911Z,100
2018-02-14T09:48:07.917Z,100
2018-02-14T09:48:39.998Z,100
2018-02-14T09:49:11.979Z,100
2018-02-14T09:49:43.960Z,100
2018-02-14T09:50:15.935Z,100
2018-02-14T09:50:47.945Z,100
2018-02-14T09:51:20.485Z,100
2018-02-14T09:51:52.616Z,100
2018-02-14T09:52:24.659Z,100
2018-02-14T09:52:57.183Z,105
2018-02-14T09:53:29.205Z,105
2018-02-14T09:54:01.226Z,105
2018-02-14T09:54:33.996Z,105
2018-02-14T09:55:05.967Z,105
2018-02-14T09:55:37.956Z,105
2018-02-14T09:56:10.012Z,105
2018-02-14T09:56:42.791Z,105
2018-02-14T09:57:14.840Z,105
2018-02-14T09:57:46.861Z,105
2018-02-14T09:58:18.876Z,105
2018-02-14T09:58:50.946Z,105
2018-02-14T09:59:22.917Z,105
2018-02-14T09:59:54.947Z,105
2018-02-14T10:00:26.944Z,105
2018-02-14T10:00:58.988Z,105
2018-02-14T10:01:31.024Z,105
2018-02-14T10:02:03.092Z,105
2018-02-14T10:02:35.148Z,110
2018-02-14T10:03:07.176Z,110
2018-02-14T10:03:39.182Z,110
2018-02-14T10:04:11.200Z,110
2018-02-14T10:04:43.997Z,110
2018-02-14T10:05:16.115Z,110
2018-02-14T10:05:49.022Z,110
2018-02-14T10:06:21.011Z,110
2018-02-14T10:06:52.995Z,110
2018-02-14T10:07:25.047Z,110
2018-02-14T10:07:57.021Z,110
2018-02-14T10:08:29.077Z,110
2018-02-14T10:09:01.130Z,110
2018-02-14T10:09:33.956Z,110
2018-02-14T10:10:06.142Z,110
2018-02-14T10:10:38.114Z,110
2018-02-14T10:11:10.145Z,110
2018-02-14T10:11:42.195Z,110
2018-02-14T10:12:14.259Z,115
2018-02-14T10:12:47.985Z,115
2018-02-14T10:13:19.965Z,115
2018-02-14T10:13:52.874Z,115
2018-02-14T10:14:24.943Z,115
2018-02-14T10:14:56.956Z,115
2018-02-14T10:15:28.939Z,115
2018-02-14T10:16:00.954Z,115
2018-02-14T10:16:33.091Z,115
2018-02-14T10:17:05.075Z,115
2018-02-14T10:17:37.101Z,115
2018-02-14T10:18:09.093Z,115
2018-02-14T10:18:41.085Z,115
2018-02-14T10:19:13.182Z,115
2018-02-14T10:19:46.025Z,115
2018-02-14T10:20:18.007Z,115
2018-02-14T10:20:50.011Z,115
2018-02-14T10:21:22.022Z,115
2018-02-14T10:21:54.015Z,120
2018-02-14T10:22:26.036Z,120
2018-02-14T10:22:58.039Z,120
2018-02-14T10:23:30.582Z,120
2018-02-14T10:24:02.600Z,120
2018-02-14T10:24:34.578Z,120
2018-02-14T10:25:06.570Z,120
2018-02-14T10:25:38.619Z,120
2018-02-14T10:26:10.610Z,120
2018-02-14T10:26:42.731Z,120
2018-02-14T10:27:14.694Z,120
2018-02-14T10:27:46.751Z,120
2018-02-14T10:28:19.759Z,120
2018-02-14T10:28:51.784Z,120
2018-02-14T10:29:23.799Z,125
2018-02-14T10:29:55.777Z,125
2018-02-14T10:30:27.793Z,125
2018-02-14T10:31:00.504Z,125
2018-02-14T10:31:32.538Z,125
2018-02-14T10:32:04.529Z,125
2018-02-14T10:32:36.546Z,125
2018-02-14T10:33:08.609Z,125
2018-02-14T10:33:40.622Z,125
2018-02-14T10:34:12.609Z,125
2018-02-14T10:34:44.656Z,125
2018-02-14T10:35:18.096Z,125
2018-02-14T10:35:50.678Z,130
2018-02-14T10:36:22.712Z,130
2018-02-14T10:36:54.731Z,130
2018-02-14T10:37:27.394Z,130
2018-02-14T10:37:59.414Z,130
2018-02-14T10:38:31.426Z,130
2018-02-14T10:39:03.507Z,130
2018-02-14T10:39:35.577Z,130
2018-02-14T10:40:07.585Z,130
2018-02-14T10:40:39.565Z,135
2018-02-14T10:41:11.584Z,135
2018-02-14T10:41:43.880Z,135
2018-02-14T10:42:15.867Z,135
2018-02-14T10:42:47.882Z,135
2018-02-14T10:43:19.955Z,135
2018-02-14T10:43:52.056Z,135
2018-02-14T10:44:24.058Z,135
2018-02-14T10:44:56.603Z,135
2018-02-14T10:45:28.634Z,140
2018-02-14T10:46:01.512Z,140
2018-02-14T10:46:33.495Z,140
2018-02-14T10:47:05.579Z,140
2018-02-14T10:47:38.296Z,140
2018-02-14T10:48:10.328Z,140
2018-02-14T10:48:42.394Z,140
2018-02-14T10:49:14.385Z,140
2018-02-14T10:49:46.433Z,140
2018-02-14T10:50:18.479Z,145
2018-02-14T10:50:50.498Z,145
2018-02-14T10:51:22.493Z,145
2018-02-14T10:51:55.108Z,145
2018-02-14T10:52:27.190Z,145
2018-02-14T10:52:59.684Z,145
2018-02-14T10:53:31.851Z,145
2018-02-14T10:54:03.894Z,145
2018-02-14T10:54:36.138Z,150
2018-02-14T10:55:08.174Z,150
2018-02-14T10:55:41.030Z,150
2018-02-14T10:56:13.328Z,150
2018-02-14T10:56:45.482Z,150
2018-02-14T10:57:18.265Z,150
2018-02-14T10:57:50.310Z,150
2018-02-14T10:58:22.442Z,150
2018-02-14T10:58:54.586Z,155
2018-02-14T10:59:26.611Z,155
2018-02-14T10:59:58.636Z,155
2018-02-14T11:00:30.668Z,155
2018-02-14T11:01:02.715Z,155
2018-02-14T11:01:35.422Z,155
2018-02-14T11:02:07.418Z,155
2018-02-14T11:02:39.598Z,160
2018-02-14T11:03:15.122Z,160
2018-02-14T11:03:47.548Z,160
2018-02-14T11:04:19.811Z,160
2018-02-14T11:04:52.493Z,160
2018-02-14T11:05:29.478Z,160
2018-02-14T11:06:04.747Z,160
2018-02-14T11:06:36.941Z,160
2018-02-14T11:07:09.033Z,165
2018-02-14T11:07:41.095Z,165
2018-02-14T11:08:13.237Z,165
2018-02-14T11:08:45.332Z,165
2018-02-14T11:09:21.288Z,165
2018-02-14T11:09:54.629Z,165
2018-02-14T11:10:26.663Z,170
2018-02-14T11:10:58.736Z,170
2018-02-14T11:11:30.749Z,170
2018-02-14T11:12:02.754Z,170
2018-02-14T11:12:34.801Z,170
2018-02-14T11:13:06.794Z,175
2018-02-14T11:13:38.819Z,175
2018-02-14T11:14:10.857Z,175
2018-02-14T11:14:42.888Z,175
2018-02-14T11:15:15.027Z,175
2018-02-14T11:15:47.206Z,175
2018-02-14T11:16:19.279Z,175
2018-02-14T11:16:51.324Z,175
2018-02-14T11:17:23.336Z,175
2018-02-14T11:17:55.342Z,175
2018-02-14T11:18:27.419Z,175
2018-02-14T11:18:59.410Z,165
2018-02-14T11:19:32.420Z,165
2018-02-14T11:20:04.443Z,160
2018-02-14T11:20:36.472Z,160
2018-02-14T11:21:08.505Z,160
2018-02-14T11:21:40.519Z,160
2018-02-14T11:22:12.836Z,170
2018-02-14T11:22:45.087Z,165
2018-02-14T11:23:17.135Z,165
2018-02-14T11:23:49.111Z,170
2018-02-14T11:24:21.163Z,175
2018-02-14T11:24:53.183Z,180
2018-02-14T11:25:25.196Z,185
2018-02-14T11:25:57.224Z,190
2018-02-14T11:26:29.820Z,190
2018-02-14T11:27:01.974Z,190
2018-02-14T11:27:34.098Z,190
2018-02-14T11:28:06.719Z,185
2018-02-14T11:28:38.742Z,190
2018-02-14T11:29:10.764Z,190
2018-02-14T11:29:42.796Z,190
2018-02-14T11:30:14.819Z,190
2018-02-14T11:30:46.811Z,190
2018-02-14T11:31:19.726Z,195
2018-02-14T11:31:51.723Z,200
2018-02-14T11:32:23.739Z,200
2018-02-14T11:32:55.750Z,200
2018-02-14T11:33:27.766Z,205
2018-02-14T11:33:59.763Z,205
2018-02-14T11:34:31.789Z,205
2018-02-14T11:35:03.799Z,200
2018-02-14T11:35:36.755Z,200
2018-02-14T11:36:09.546Z,195
2018-02-14T11:36:41.594Z,195
2018-02-14T11:37:13.620Z,195
2018-02-14T11:37:45.598Z,200
2018-02-14T11:38:17.629Z,200
2018-02-14T11:38:49.650Z,200
2018-02-14T11:39:21.714Z,200
2018-02-14T11:39:53.720Z,200
2018-02-14T11:40:26.392Z,195
2018-02-14T11:40:58.389Z,195
2018-02-14T11:41:30.492Z,190
2018-02-14T11:42:02.585Z,190
2018-02-14T11:42:34.654Z,195
2018-02-14T11:43:06.724Z,190
2018-02-14T11:43:38.898Z,200
2018-02-14T11:44:10.912Z,200
2018-02-14T11:44:42.912Z,200
2018-02-14T11:45:15.050Z,205
2018-02-14T11:45:47.060Z,210
2018-02-14T11:46:19.193Z,215
2018-02-14T11:46:51.819Z,215
2018-02-14T11:47:24.016Z,210
2018-02-14T11:47:56.191Z,210
2018-02-14T11:48:28.276Z,215
2018-02-14T11:49:00.313Z,210
2018-02-14T11:49:32.364Z,210
2018-02-14T11:50:04.398Z,205
2018-02-14T11:50:36.487Z,210
2018-02-14T11:51:08.483Z,220
2018-02-14T11:51:40.475Z,230
2018-02-14T11:52:12.476Z,240
2018-02-14T11:52:44.977Z,250
2018-02-14T11:53:17.676Z,255
2018-02-14T11:53:50.563Z,250
2018-02-14T11:54:22.566Z,250
2018-02-14T11:54:54.769Z,250
2018-02-14T11:55:26.937Z,250
2018-02-14T11:55:59.650Z,255
2018-02-14T11:56:31.712Z,270
2018-02-14T11:57:03.723Z,275
2018-02-14T11:57:35.750Z,280
2018-02-14T11:58:07.789Z,290
2018-02-14T11:58:39.830Z,300
2018-02-14T11:59:11.822Z,300
2018-02-14T11:59:43.818Z,295
2018-02-14T12:00:15.804Z,295
2018-02-14T12:00:48.035Z,300
2018-02-14T12:01:20.061Z,305
2018-02-14T12:01:52.025Z,305
2018-02-14T12:02:24.055Z,310
2018-02-14T12:02:56.110Z,320
2018-02-14T12:03:28.096Z,325
2018-02-14T12:04:00.090Z,335
2018-02-14T12:04:32.128Z,345
2018-02-14T12:05:04.194Z,350
2018-02-14T12:05:36.209Z,355
2018-02-14T12:06:08.262Z,360
2018-02-14T12:06:40.269Z,370
2018-02-14T12:07:12.262Z,370
2018-02-14T12:07:44.375Z,365
2018-02-14T12:08:16.373Z,370
2018-02-14T12:08:48.419Z,360
2018-02-14T12:09:20.452Z,365
2018-02-14T12:09:52.490Z,355
2018-02-14T12:10:24.527Z,355
2018-02-14T12:10:56.754Z,350
2018-02-14T12:11:28.767Z,350
2018-02-14T12:12:00.797Z,350
2018-02-14T12:12:32.911Z,350
2018-02-14T12:13:04.893Z,350
2018-02-14T12:13:36.899Z,350
2018-02-14T12:14:08.911Z,350
2018-02-14T12:14:40.886Z,350
2018-02-14T12:15:12.912Z,350
2018-02-14T12:15:45.017Z,355
2018-02-14T12:16:17.046Z,355
2018-02-14T12:16:49.101Z,360
2018-02-14T12:17:21.149Z,365
2018-02-14T12:17:53.180Z,375
2018-02-14T12:18:25.168Z,380
2018-02-14T12:18:57.331Z,385
2018-02-14T12:19:29.456Z,385
2018-02-14T12:20:01.494Z,390
2018-02-14T12:20:33.545Z,390
2018-02-14T12:21:05.543Z,395
2018-02-14T12:21:37.598Z,395
2018-02-14T12:22:09.599Z,400
2018-02-14T12:22:41.591Z,405
2018-02-14T12:23:13.623Z,415
2018-02-14T12:23:46.485Z,410
2018-02-14T12:24:18.530Z,415
2018-02-14T12:24:50.495Z,415
2018-02-14T12:25:22.652Z,415
2018-02-14T12:25:54.682Z,420
2018-02-14T12:26:26.709Z,420
2018-02-14T12:26:58.895Z,425
2018-02-14T12:27:30.900Z,425
2018-02-14T12:28:03.053Z,430
2018-02-14T12:28:35.072Z,430
2018-02-14T12:29:07.164Z,435
2018-02-14T12:29:39.153Z,435
2018-02-14T12:30:11.192Z,440
2018-02-14T12:30:43.303Z,445
2018-02-14T12:31:15.341Z,445
2018-02-14T12:31:47.357Z,455
2018-02-14T12:32:20.177Z,455
2018-02-14T12:32:52.194Z,470
2018-02-14T12:33:24.228Z,500
2018-02-14T12:33:56.253Z,575
2018-02-14T12:34:28.293Z,1245
2018-02-14T12:35:00.305Z,1805
2018-02-14T12:35:32.360Z,2105
2018-02-14T12:36:04.361Z,1890
2018-02-14T12:36:36.373Z,1655
2018-02-14T12:37:08.424Z,1620
2018-02-14T12:37:40.447Z,1550
2018-02-14T12:38:13.090Z,1590
2018-02-14T12:38:45.119Z,1560
2018-02-14T12:39:17.167Z,1560
2018-02-14T12:39:49.159Z,1545
2018-02-14T12:40:21.113Z,1565
2018-02-14T12:40:53.106Z,1570
2018-02-14T12:41:25.112Z,1525
2018-02-14T12:41:57.103Z,1525
2018-02-14T12:42:29.691Z,1490
2018-02-14T12:43:02.285Z,1500
2018-02-14T12:43:34.303Z,1505
2018-02-14T12:44:06.298Z,1505
2018-02-14T12:44:38.328Z,1500
2018-02-14T12:45:11.195Z,1510
2018-02-14T12:45:43.235Z,1510
2018-02-14T12:46:15.287Z,1495
2018-02-14T12:46:47.307Z,1485
2018-02-14T12:47:19.302Z,1510
2018-02-14T12:47:51.347Z,1500
2018-02-14T12:48:23.388Z,1530
2018-02-14T12:48:55.460Z,1550
2018-02-14T12:49:27.454Z,1550
2018-02-14T12:49:59.446Z,1565
2018-02-14T12:50:31.517Z,1510
2018-02-14T12:51:03.537Z,1515
2018-02-14T12:51:35.560Z,1530
2018-02-14T12:52:07.721Z,1550
2018-02-14T12:52:39.829Z,1590
2018-02-14T12:53:11.937Z,1625
2018-02-14T12:53:43.963Z,1625
2018-02-14T12:54:15.985Z,1645
2018-02-14T12:54:48.021Z,1680
2018-02-14T12:55:20.059Z,1730
2018-02-14T12:55:52.055Z,1790
2018-02-14T12:56:24.147Z,1815
2018-02-14T12:56:56.161Z,1835
2018-02-14T12:57:28.156Z,1830
2018-02-14T12:58:00.163Z,1805
2018-02-14T12:58:32.244Z,1790
2018-02-14T12:59:04.267Z,1760
2018-02-14T12:59:36.293Z,1730
2018-02-14T13:00:08.323Z,1700
2018-02-14T13:00:40.415Z,1675
2018-02-14T13:01:12.460Z,1620
2018-02-14T13:01:44.493Z,1555
2018-02-14T13:02:16.559Z,1405
2018-02-14T13:02:48.562Z,1590
2018-02-14T13:03:20.591Z,1485
2018-02-14T13:03:52.613Z,1530
2018-02-14T13:04:26.604Z,1445
2018-02-14T13:04:58.597Z,1480
2018-02-14T13:05:31.312Z,1450
2018-02-14T13:06:03.345Z,1440
2018-02-14T13:06:35.434Z,1505
2018-02-14T13:07:07.439Z,1460
2018-02-14T13:07:39.431Z,1370
2018-02-14T13:08:11.449Z,1405
2018-02-14T13:08:43.506Z,1420
2018-02-14T13:09:15.542Z,1445
2018-02-14T13:09:47.552Z,1500
2018-02-14T13:10:19.533Z,1600
2018-02-14T13:10:51.566Z,1635
2018-02-14T13:11:23.566Z,1610
2018-02-14T13:11:55.604Z,1760
2018-02-14T13:12:27.650Z,1770
2018-02-14T13:12:59.648Z,1755
2018-02-14T13:13:31.683Z,1785
2018-02-14T13:14:04.589Z,1775
2018-02-14T13:14:36.591Z,1870
2018-02-14T13:15:08.541Z,1890
2018-02-14T13:15:40.554Z,1855
2018-02-14T13:16:12.555Z,1850
2018-02-14T13:16:44.601Z,1880
2018-02-14T13:17:16.587Z,1890
2018-02-14T13:17:48.653Z,1870
2018-02-14T13:18:20.656Z,1860
2018-02-14T13:18:52.725Z,1850
2018-02-14T13:19:24.845Z,1865
2018-02-14T13:19:56.854Z,1845
2018-02-14T13:20:28.921Z,1870
2018-02-14T13:21:02.066Z,1805
2018-02-14T13:21:34.104Z,1745
2018-02-14T13:22:06.823Z,1745
2018-02-14T13:22:38.900Z,1740
2018-02-14T13:23:11.608Z,1755
2018-02-14T13:23:43.656Z,1735
2018-02-14T13:24:16.620Z,1700
2018-02-14T13:24:48.653Z,1720
2018-02-14T13:25:20.719Z,1690
2018-02-14T13:25:52.756Z,1710
2018-02-14T13:26:24.778Z,1730
2018-02-14T13:26:56.942Z,1730
2018-02-14T13:27:28.904Z,1735
2018-02-14T13:28:00.899Z,1745
2018-02-14T13:28:32.996Z,1735
2018-02-14T13:29:05.051Z,1685
2018-02-14T13:29:37.025Z,1635
2018-02-14T13:30:09.032Z,1585
2018-02-14T13:30:41.021Z,1545
2018-02-14T13:31:12.998Z,1540
2018-02-14T13:31:45.695Z,1540
2018-02-14T13:32:17.675Z,1550
2018-02-14T13:32:49.713Z,1520
2018-02-14T13:33:21.763Z,1520
2018-02-14T13:33:54.547Z,1545
2018-02-14T13:34:27.486Z,1545
2018-02-14T13:35:00.021Z,1585
2018-02-14T13:35:32.094Z,1565
2018-02-14T13:36:04.240Z,1530
2018-02-14T13:36:36.400Z,1505
2018-02-14T13:37:08.397Z,1485
2018-02-14T13:37:40.406Z,1485
2018-02-14T13:38:12.456Z,1490
2018-02-14T13:38:44.473Z,1485
2018-02-14T13:39:16.543Z,1475
2018-02-14T13:39:48.573Z,1490
2018-02-14T13:40:20.738Z,1540
2018-02-14T13:40:52.790Z,1540
2018-02-14T13:41:24.837Z,1585
2018-02-14T13:41:56.818Z,1590
2018-02-14T13:42:28.867Z,1595
2018-02-14T13:43:00.914Z,1595
2018-02-14T13:43:32.885Z,1600
2018-02-14T13:44:04.961Z,1610
2018-02-14T13:44:37.551Z,1655
2018-02-14T13:45:10.322Z,1665
2018-02-14T13:45:42.360Z,1655
2018-02-14T13:46:14.978Z,1620
2018-02-14T13:46:47.862Z,1580
2018-02-14T13:47:20.752Z,1550
2018-02-14T13:47:52.785Z,1515
2018-02-14T13:48:25.529Z,1495
2018-02-14T13:48:57.805Z,1510
2018-02-14T13:49:29.861Z,1525
2018-02-14T13:50:01.860Z,1535
2018-02-14T13:50:33.977Z,1545
2018-02-14T13:51:06.526Z,1520
2018-02-14T13:51:38.562Z,1505
2018-02-14T13:52:10.527Z,1525
2018-02-14T13:52:42.539Z,1500
2018-02-14T13:53:14.589Z,1500
2018-02-14T13:53:46.600Z,1495
2018-02-14T13:54:18.610Z,1445
2018-02-14T13:54:50.666Z,1490
2018-02-14T13:55:22.714Z,1495
2018-02-14T13:55:55.591Z,1480
2018-02-14T13:56:28.102Z,1460
2018-02-14T13:57:00.234Z,1440
2018-02-14T13:57:33.065Z,1420
2018-02-14T13:58:05.867Z,1475
2018-02-14T13:58:39.436Z,1465
2018-02-14T13:59:11.435Z,1475
2018-02-14T13:59:44.426Z,1430
2018-02-14T14:00:16.435Z,1410
2018-02-14T14:00:48.460Z,1410
2018-02-14T14:01:20.493Z,1395
2018-02-14T14:01:52.558Z,1380
2018-02-14T14:02:24.628Z,1435
2018-02-14T14:02:56.717Z,1390
2018-02-14T14:03:29.005Z,1395
2018-02-14T14:04:01.030Z,1385
2018-02-14T14:04:33.185Z,1365
2018-02-14T14:05:05.169Z,1405
2018-02-14T14:05:37.211Z,1400
2018-02-14T14:06:09.252Z,1425
2018-02-14T14:06:42.708Z,1395
2018-02-14T14:07:15.459Z,1455
2018-02-14T14:07:48.448Z,1455
2018-02-14T14:08:21.173Z,1450
2018-02-14T14:08:53.126Z,1475
2018-02-14T14:09:25.145Z,1440
2018-02-14T14:09:57.223Z,1430
2018-02-14T14:10:29.282Z,1415
2018-02-14T14:11:02.760Z,1385
2018-02-14T14:11:34.816Z,1355
2018-02-14T14:12:06.906Z,1360
2018-02-14T14:12:39.043Z,1350
2018-02-14T14:13:11.046Z,1340
2018-02-14T14:13:43.209Z,1375
2018-02-14T14:14:15.939Z,1390
2018-02-14T14:14:47.997Z,1375
2018-02-14T14:15:20.900Z,1395
2018-02-14T14:15:52.905Z,1370
2018-02-14T14:16:25.695Z,1385
2018-02-14T14:16:58.780Z,1365
2018-02-14T14:17:32.804Z,1365
2018-02-14T14:18:04.813Z,1365
2018-02-14T14:18:36.792Z,1350
2018-02-14T14:19:08.821Z,1340
2018-02-14T14:19:41.657Z,1315
2018-02-14T14:20:13.805Z,1330
2018-02-14T14:20:45.936Z,1325
2018-02-14T14:21:17.945Z,1340
2018-02-14T14:21:50.004Z,1345
2018-02-14T14:22:22.032Z,1315
2018-02-14T14:22:54.097Z,1300
2018-02-14T14:23:26.165Z,1275
2018-02-14T14:23:58.209Z,1275
2018-02-14T14:24:30.202Z,1245
2018-02-14T14:25:02.262Z,1255
2018-02-14T14:25:34.285Z,1250
2018-02-14T14:26:06.288Z,1240
2018-02-14T14:26:38.497Z,1230
2018-02-14T14:27:11.037Z,1230
2018-02-14T14:27:43.101Z,1240
2018-02-14T14:28:15.289Z,1255
2018-02-14T14:28:47.458Z,1255
2018-02-14T14:29:19.508Z,1245
2018-02-14T14:29:52.287Z,1200
2018-02-14T14:30:25.156Z,1190
2018-02-14T14:30:57.166Z,1185
2018-02-14T14:31:29.269Z,1200
2018-02-14T14:32:01.283Z,1200
2018-02-14T14:32:33.371Z,1190
2018-02-14T14:33:05.395Z,1200
2018-02-14T14:33:37.433Z,1180
2018-02-14T14:34:10.037Z,1155
2018-02-14T14:34:42.094Z,1135
2018-02-14T14:35:14.687Z,1135
2018-02-14T14:35:47.804Z,1145
2018-02-14T14:36:20.088Z,1170
2018-02-14T14:36:52.122Z,1170
2018-02-14T14:37:24.162Z,1155
2018-02-14T14:37:56.835Z,1115
2018-02-14T14:38:28.880Z,1080
2018-02-14T14:39:01.008Z,1035
2018-02-14T14:39:34.031Z,1045
2018-02-14T14:40:06.076Z,1035
2018-02-14T14:40:38.145Z,1000
2018-02-14T14:41:10.724Z,990
2018-02-14T14:41:44.969Z,955
2018-02-14T14:42:17.077Z,930
2018-02-14T14:42:49.126Z,915
2018-02-14T14:43:21.303Z,880
2018-02-14T14:43:53.271Z,865
2018-02-14T14:44:25.272Z,830
2018-02-14T14:44:58.113Z,825
2018-02-14T14:45:30.150Z,805
2018-02-14T14:46:02.170Z,795
2018-02-14T14:46:34.178Z,835
2018-02-14T14:47:06.237Z,845
2018-02-14T14:47:41.270Z,840
2018-02-14T14:48:13.397Z,830
2018-02-14T14:48:47.268Z,830
2018-02-14T14:49:19.309Z,815
2018-02-14T14:49:51.384Z,855
2018-02-14T14:50:25.262Z,865
2018-02-14T14:50:57.289Z,850
2018-02-14T14:51:30.325Z,840
2018-02-14T14:52:02.366Z,805
2018-02-14T14:52:34.451Z,790
2018-02-14T14:53:06.607Z,785
2018-02-14T14:53:38.618Z,770
2018-02-14T14:54:10.653Z,765
2018-02-14T14:54:42.708Z,775
2018-02-14T14:55:14.779Z,765
2018-02-14T14:55:46.832Z,745
2018-02-14T14:56:19.537Z,715
2018-02-14T14:56:52.194Z,685
2018-02-14T14:57:25.085Z,690
2018-02-14T14:57:57.107Z,675
2018-02-14T14:58:29.234Z,635
2018-02-14T14:59:01.256Z,655
2018-02-14T14:59:33.268Z,650
2018-02-14T15:00:05.928Z,610
2018-02-14T15:00:37.911Z,605
2018-02-14T15:01:09.935Z,565
2018-02-14T15:01:41.962Z,540
2018-02-14T15:02:13.968Z,465
2018-02-14T15:02:45.967Z,360
2018-02-14T15:03:17.964Z,265
2018-02-14T15:03:49.989Z,175
2018-02-14T15:04:22.109Z,145
2018-02-14T15:04:54.112Z,135
2018-02-14T15:05:26.164Z,130
2018-02-14T15:05:58.986Z,125
2018-02-14T15:06:31.022Z,120
2018-02-14T15:07:04.086Z,115
2018-02-14T15:07:37.004Z,115
2018-02-14T15:08:09.173Z,115
2018-02-14T15:08:41.196Z,115
2018-02-14T15:09:13.196Z,110
2018-02-14T15:09:45.218Z,110
2018-02-14T15:10:17.223Z,110
2018-02-14T15:10:49.214Z,105
2018-02-14T15:11:21.213Z,105
2018-02-14T15:11:53.238Z,105
2018-02-14T15:12:25.257Z,100
2018-02-14T15:12:57.261Z,100
2018-02-14T15:13:29.298Z,100
2018-02-14T15:14:01.376Z,95
2018-02-14T15:14:33.395Z,95
2018-02-14T15:15:06.335Z,90
2018-02-14T15:15:38.374Z,90
2018-02-14T15:16:10.397Z,85
2018-02-14T15:16:42.367Z,85
2018-02-14T15:17:14.512Z,85
2018-02-14T15:17:46.510Z,85
2018-02-14T15:18:18.570Z,85
2018-02-14T15:18:50.596Z,85
2018-02-14T15:19:22.735Z,85
2018-02-14T15:19:55.447Z,80
2018-02-14T15:20:27.481Z,80
2018-02-14T15:20:59.511Z,80
2018-02-14T15:21:31.542Z,80
2018-02-14T15:22:03.634Z,75
2018-02-14T15:22:35.649Z,75
2018-02-14T15:23:07.636Z,75
2018-02-14T15:23:39.632Z,75
2018-02-14T15:24:11.696Z,75
2018-02-14T15:24:43.806Z,70
2018-02-14T15:25:15.802Z,70
2018-02-14T15:25:47.803Z,70
2018-02-14T15:26:19.825Z,70
2018-02-14T15:26:51.815Z,70
2018-02-14T15:27:23.826Z,70
2018-02-14T15:27:55.921Z,70
2018-02-14T15:28:27.949Z,70
2018-02-14T15:28:59.978Z,65
2018-02-14T15:29:32.003Z,65
2018-02-14T15:30:04.101Z,65
2018-02-14T15:30:36.092Z,65
2018-02-14T15:31:09.035Z,65
2018-02-14T15:31:41.040Z,65
2018-02-14T15:32:13.053Z,65
2018-02-14T15:32:45.052Z,60
2018-02-14T15:33:17.038Z,60
2018-02-14T15:33:49.117Z,60
2018-02-14T15:34:21.074Z,60
2018-02-14T15:34:53.130Z,60
2018-02-14T15:35:25.135Z,60
2018-02-14T15:35:57.117Z,55
2018-02-14T15:36:29.929Z,55
2018-02-14T15:37:02.555Z,55
2018-02-14T15:37:34.510Z,55
2018-02-14T15:38:06.536Z,55
2018-02-14T15:38:38.562Z,50
2018-02-14T15:39:10.590Z,50
2018-02-14T15:39:42.652Z,50
2018-02-14T15:40:14.844Z,50
2018-02-14T15:40:46.860Z,50
2018-02-14T15:41:18.875Z,50
2018-02-14T15:41:50.962Z,50
2018-02-14T15:42:22.957Z,50
2018-02-14T15:42:54.975Z,50
2018-02-14T15:43:26.925Z,50
2018-02-14T15:43:58.966Z,50
2018-02-14T15:44:30.988Z,45
2018-02-14T15:45:03.058Z,45
2018-02-14T15:45:35.075Z,45
2018-02-14T15:46:07.100Z,45
2018-02-14T15:46:39.112Z,45
2018-02-14T15:47:12.141Z,45
2018-02-14T15:47:45.060Z,45
2018-02-14T15:48:17.082Z,45
2018-02-14T15:48:50.852Z,40
2018-02-14T15:49:22.867Z,40
2018-02-14T15:49:54.898Z,40
2018-02-14T15:50:26.921Z,40
2018-02-14T15:50:58.931Z,40
2018-02-14T15:51:30.900Z,40
2018-02-14T15:52:03.369Z,35
2018-02-14T15:52:35.463Z,35
2018-02-14T15:53:07.483Z,35
2018-02-14T15:53:39.529Z,35
2018-02-14T15:54:11.539Z,35
2018-02-14T15:54:43.575Z,30
2018-02-14T15:55:15.572Z,30
2018-02-14T15:55:47.590Z,30
2018-02-14T15:56:19.639Z,30
2018-02-14T15:56:51.687Z,30
2018-02-14T15:57:24.355Z,30
2018-02-14T15:57:56.353Z,25
2018-02-14T15:58:28.430Z,25
2018-02-14T15:59:00.484Z,25
2018-02-14T15:59:32.493Z,25
2018-02-14T16:00:05.231Z,25
2018-02-14T16:00:37.258Z,30
2018-02-14T16:01:09.244Z,30
2018-02-14T16:01:41.251Z,30
2018-02-14T16:02:13.246Z,30
2018-02-14T16:02:45.250Z,25
2018-02-14T16:03:17.270Z,25
2018-02-14T16:03:49.954Z,25
2018-02-14T16:04:21.949Z,25
2018-02-14T16:04:53.958Z,25
2018-02-14T16:05:25.966Z,25
2018-02-14T16:05:58.017Z,25
2018-02-14T16:06:30.047Z,20
2018-02-14T16:07:02.056Z,20
2018-02-14T16:07:35.647Z,20
2018-02-14T16:08:07.669Z,20
2018-02-14T16:08:39.708Z,20
2018-02-14T16:09:11.824Z,20
2018-02-14T16:09:43.845Z,20
2018-02-14T16:10:15.878Z,20
2018-02-14T16:10:47.950Z,20
2018-02-14T16:11:19.909Z,20
2018-02-14T16:11:51.935Z,20
2018-02-14T16:12:23.974Z,20
2018-02-14T16:12:55.996Z,20
2018-02-14T16:13:28.025Z,20
2018-02-14T16:14:00.022Z,20
2018-02-14T16:14:32.173Z,15
2018-02-14T16:15:04.153Z,15
2018-02-14T16:15:36.234Z,15
2018-02-14T16:16:08.179Z,15
2018-02-14T16:16:40.243Z,15
2018-02-14T16:17:12.858Z,15
2018-02-14T16:17:44.929Z,15
2018-02-14T16:18:18.243Z,15
2018-02-14T16:18:50.213Z,10
2018-02-14T16:19:22.222Z,10
2018-02-14T16:19:55.864Z,10
2018-02-14T16:20:27.867Z,10
2018-02-14T16:20:59.900Z,10
2018-02-14T16:21:31.916Z,10
2018-02-14T16:22:04.024Z,10
2018-02-14T16:22:36.043Z,10
2018-02-14T16:23:08.109Z,10
2018-02-14T16:23:40.187Z,10
2018-02-14T16:24:12.207Z,10
2018-02-14T16:24:45.165Z,10
2018-02-14T16:25:17.215Z,10
2018-02-14T16:25:49.232Z,10
2018-02-14T16:26:21.187Z,5
2018-02-14T16:26:53.172Z,5
2018-02-14T16:27:25.158Z,5